Time;durP1;ratioP1;P1;durP2;ratioP2;P2;SDS_P1;SDS_P2;PMS_P1;PMS_P2;Temp;Humidity;BMP_temperature;BMP_pressure;BME280_temperature;BME280_humidity;BME280_pressure;Samples;Min_cycle;Max_cycle;Signal;HPM_P1;HPM_P2
2021/03/31 00:00:25;;;;;;;26.65;15.32;;;;;;;;;;5127201;28;20120;-93
2021/03/31 00:02:54;;;;;;;26.70;15.65;;;;;;;;;;5127926;28;20039;-93
2021/03/31 00:05:22;;;;;;;27.40;15.82;;;;;;;;;;5127294;28;20032;-93
2021/03/31 00:07:49;;;;;;;24.60;15.55;;;;;;;;;;5127608;28;20036;-94
2021/03/31 00:10:39;;;;;;;27.85;15.65;;;;;;;;;;5126923;28;20181;-94
2021/03/31 00:13:07;;;;;;;24.60;15.05;;;;;;;;;;5100448;28;20044;-94
2021/03/31 00:15:34;;;;;;;24.55;15.52;;;;;;;;;;5127588;28;20487;-94
2021/03/31 00:18:01;;;;;;;29.65;16.08;;;;;;;;;;5127352;28;20043;-94
2021/03/31 00:20:29;;;;;;;23.08;15.30;;;;;;;;;;5110871;28;20486;-94
2021/03/31 00:22:56;;;;;;;24.73;15.65;;;;;;;;;;5127557;28;20042;-94
2021/03/31 00:25:23;;;;;;;23.67;15.27;;;;;;;;;;5112927;28;20054;-93
2021/03/31 00:27:50;;;;;;;25.80;16.60;;;;;;;;;;5114093;28;20036;-94
2021/03/31 00:30:18;;;;;;;25.35;16.00;;;;;;;;;;5113854;28;20086;-94
2021/03/31 00:32:45;;;;;;;27.00;15.77;;;;;;;;;;5097747;28;20488;-94
2021/03/31 00:35:12;;;;;;;27.20;14.95;;;;;;;;;;5113889;28;20064;-94
2021/03/31 00:37:40;;;;;;;25.05;14.43;;;;;;;;;;5114118;28;20036;-93
2021/03/31 00:40:11;;;;;;;24.02;15.98;;;;;;;;;;5129915;28;20087;-93
2021/03/31 00:42:39;;;;;;;25.30;15.75;;;;;;;;;;5130672;28;20373;-94
2021/03/31 00:45:07;;;;;;;25.75;15.93;;;;;;;;;;5113328;28;20050;-93
2021/03/31 00:47:36;;;;;;;23.08;15.30;;;;;;;;;;5130463;28;20055;-93
2021/03/31 00:50:04;;;;;;;27.42;15.90;;;;;;;;;;5130085;28;20434;-93
2021/03/31 00:52:31;;;;;;;28.98;15.73;;;;;;;;;;5114019;28;20032;-93
2021/03/31 00:54:59;;;;;;;26.83;15.70;;;;;;;;;;5130567;28;20040;-94
2021/03/31 00:57:27;;;;;;;25.92;15.73;;;;;;;;;;5129897;28;20453;-94
2021/03/31 00:59:54;;;;;;;28.15;16.27;;;;;;;;;;5130712;28;20040;-94
2021/03/31 01:02:21;;;;;;;24.58;16.83;;;;;;;;;;5113232;28;20040;-93
2021/03/31 01:04:49;;;;;;;25.90;16.67;;;;;;;;;;5113598;28;20035;-93
2021/03/31 01:07:16;;;;;;;28.15;16.05;;;;;;;;;;5112844;28;20059;-93
2021/03/31 01:09:43;;;;;;;25.45;16.00;;;;;;;;;;5130922;28;20067;-93
2021/03/31 01:12:20;;;;;;;28.60;16.50;;;;;;;;;;5112831;28;20400;-93
2021/03/31 01:14:47;;;;;;;26.13;16.05;;;;;;;;;;5130140;28;20043;-94
2021/03/31 01:17:27;;;;;;;26.58;16.98;;;;;;;;;;5129392;28;20043;-94
2021/03/31 01:20:00;;;;;;;26.35;15.88;;;;;;;;;;5130187;28;20077;-94
2021/03/31 01:22:44;;;;;;;25.88;16.13;;;;;;;;;;5129431;28;20119;-93
2021/03/31 01:25:26;;;;;;;26.85;16.63;;;;;;;;;;5129429;28;20173;-93
2021/03/31 01:28:05;;;;;;;30.35;16.42;;;;;;;;;;5129825;28;20036;-94
2021/03/31 01:30:38;;;;;;;30.05;17.08;;;;;;;;;;5129752;28;20112;-94
2021/03/31 01:33:17;;;;;;;28.77;16.75;;;;;;;;;;5129694;28;20488;-94
2021/03/31 01:35:45;;;;;;;26.50;17.25;;;;;;;;;;5129485;28;20036;-94
2021/03/31 01:38:14;;;;;;;29.02;17.27;;;;;;;;;;5112635;28;20074;-94
2021/03/31 01:40:47;;;;;;;31.42;17.17;;;;;;;;;;5129343;28;20043;-93
2021/03/31 01:43:17;;;;;;;35.30;18.73;;;;;;;;;;5129298;28;20059;-94
2021/03/31 01:45:48;;;;;;;30.70;17.23;;;;;;;;;;5129857;28;20119;-94
2021/03/31 01:48:20;;;;;;;28.50;17.10;;;;;;;;;;5129375;28;20043;-94
2021/03/31 01:50:55;;;;;;;27.15;16.92;;;;;;;;;;5129370;28;20039;-94
2021/03/31 01:53:23;;;;;;;25.35;16.00;;;;;;;;;;5128692;28;20028;-94
2021/03/31 01:55:52;;;;;;;26.65;16.50;;;;;;;;;;5129410;28;20365;-94
2021/03/31 01:58:20;;;;;;;28.13;17.88;;;;;;;;;;5129695;28;20067;-94
2021/03/31 02:00:49;;;;;;;27.45;16.50;;;;;;;;;;5112558;28;20128;-94
2021/03/31 02:03:17;;;;;;;30.88;17.98;;;;;;;;;;5128870;28;20043;-94
2021/03/31 02:05:46;;;;;;;25.70;16.90;;;;;;;;;;5129098;28;20071;-94
2021/03/31 02:08:14;;;;;;;30.80;16.35;;;;;;;;;;5128875;28;20031;-94
2021/03/31 02:10:42;;;;;;;28.88;16.83;;;;;;;;;;5130093;28;20040;-93
2021/03/31 02:13:10;;;;;;;31.95;18.25;;;;;;;;;;5112228;28;20488;-95
2021/03/31 02:15:38;;;;;;;28.40;16.98;;;;;;;;;;5128682;28;20047;-94
2021/03/31 02:18:07;;;;;;;30.73;17.90;;;;;;;;;;5112232;28;20059;-94
2021/03/31 02:20:35;;;;;;;33.90;17.77;;;;;;;;;;5128439;28;20032;-94
2021/03/31 02:23:03;;;;;;;28.17;17.55;;;;;;;;;;5128852;28;20032;-93
2021/03/31 02:25:31;;;;;;;30.48;18.27;;;;;;;;;;5111542;28;20388;-94
2021/03/31 02:27:58;;;;;;;27.95;17.38;;;;;;;;;;5128611;28;20160;-94
2021/03/31 02:30:27;;;;;;;30.25;18.13;;;;;;;;;;5111412;28;20132;-94
2021/03/31 02:32:57;;;;;;;30.05;18.42;;;;;;;;;;5128720;28;20062;-94
2021/03/31 02:35:24;;;;;;;29.30;17.88;;;;;;;;;;5128282;28;20039;-94
2021/03/31 02:37:53;;;;;;;28.77;18.17;;;;;;;;;;5128346;28;20040;-93
2021/03/31 02:40:22;;;;;;;30.60;18.17;;;;;;;;;;5127783;28;20097;-94
2021/03/31 02:42:50;;;;;;;29.75;17.52;;;;;;;;;;5128449;28;20043;-94
2021/03/31 02:45:17;;;;;;;31.05;18.30;;;;;;;;;;5129040;28;20039;-93
2021/03/31 02:47:47;;;;;;;30.77;17.88;;;;;;;;;;5111205;28;20035;-93
2021/03/31 02:50:15;;;;;;;28.30;17.48;;;;;;;;;;5128455;28;20085;-94
2021/03/31 02:52:44;;;;;;;29.70;17.73;;;;;;;;;;5128212;28;20047;-93
2021/03/31 02:55:12;;;;;;;32.03;18.20;;;;;;;;;;5128266;28;20040;-94
2021/03/31 02:57:40;;;;;;;27.77;17.50;;;;;;;;;;5128825;28;20467;-92
2021/03/31 03:00:09;;;;;;;33.42;20.65;;;;;;;;;;5111426;28;20423;-94
2021/03/31 03:02:37;;;;;;;29.20;18.27;;;;;;;;;;5127452;28;20036;-93
2021/03/31 03:05:06;;;;;;;32.08;18.42;;;;;;;;;;5128031;28;20050;-94
2021/03/31 03:07:36;;;;;;;30.88;18.40;;;;;;;;;;5110789;28;20078;-93
2021/03/31 03:10:05;;;;;;;30.23;17.35;;;;;;;;;;5111869;28;20111;-93
2021/03/31 03:12:33;;;;;;;30.48;17.13;;;;;;;;;;5127628;28;20119;-94
2021/03/31 03:15:01;;;;;;;30.70;18.02;;;;;;;;;;5129113;28;20043;-93
2021/03/31 03:17:28;;;;;;;31.27;18.75;;;;;;;;;;5094215;28;20071;-94
2021/03/31 03:19:55;;;;;;;32.63;18.90;;;;;;;;;;5111519;28;20434;-94
2021/03/31 03:22:22;;;;;;;32.63;18.77;;;;;;;;;;5110812;28;20071;-93
2021/03/31 03:24:51;;;;;;;33.05;18.45;;;;;;;;;;5121752;28;20028;-94
2021/03/31 03:27:19;;;;;;;32.25;18.90;;;;;;;;;;5128519;28;20130;-94
2021/03/31 03:29:46;;;;;;;32.03;19.38;;;;;;;;;;5127351;28;20128;-94
2021/03/31 03:32:18;;;;;;;34.33;20.10;;;;;;;;;;5108058;28;20061;-93
2021/03/31 03:34:46;;;;;;;33.63;20.08;;;;;;;;;;5127264;28;20047;-94
2021/03/31 03:37:13;;;;;;;29.63;18.33;;;;;;;;;;5107863;28;20040;-95
2021/03/31 03:39:41;;;;;;;31.73;19.00;;;;;;;;;;5106727;28;20045;-94
2021/03/31 03:42:08;;;;;;;30.23;18.45;;;;;;;;;;5091266;28;20040;-94
2021/03/31 03:44:35;;;;;;;29.50;18.77;;;;;;;;;;5090592;28;20479;-94
2021/03/31 03:47:04;;;;;;;34.30;19.27;;;;;;;;;;5090906;28;20039;-94
2021/03/31 03:49:35;;;;;;;29.83;19.38;;;;;;;;;;5106942;28;20033;-95
2021/03/31 03:52:04;;;;;;;32.45;19.27;;;;;;;;;;5107591;28;20042;-94
2021/03/31 03:54:31;;;;;;;34.85;20.55;;;;;;;;;;5107121;28;20044;-94
2021/03/31 03:56:59;;;;;;;29.58;18.63;;;;;;;;;;5115134;28;20044;-94
2021/03/31 03:59:30;;;;;;;35.20;19.70;;;;;;;;;;5111922;28;20048;-93
2021/03/31 04:01:57;;;;;;;32.00;19.08;;;;;;;;;;5132987;28;20032;-94
2021/03/31 04:04:24;;;;;;;33.25;18.92;;;;;;;;;;5128643;28;20032;-93
2021/03/31 04:06:52;;;;;;;32.25;18.52;;;;;;;;;;5114731;28;20059;-94
2021/03/31 04:09:19;;;;;;;31.33;19.65;;;;;;;;;;5114320;28;20060;-94
2021/03/31 04:11:47;;;;;;;35.45;18.85;;;;;;;;;;5130575;28;20554;-94
2021/03/31 04:14:14;;;;;;;31.10;19.67;;;;;;;;;;5114414;28;20032;-94
2021/03/31 04:16:43;;;;;;;33.85;20.48;;;;;;;;;;5130952;28;20035;-95
2021/03/31 04:19:15;;;;;;;34.17;20.20;;;;;;;;;;5132165;28;20042;-94
2021/03/31 04:21:43;;;;;;;35.05;20.60;;;;;;;;;;5130870;28;20032;-94
2021/03/31 04:24:13;;;;;;;33.70;19.90;;;;;;;;;;5114657;28;20418;-94
2021/03/31 04:26:41;;;;;;;31.42;19.52;;;;;;;;;;5130806;28;20032;-94
2021/03/31 04:29:09;;;;;;;38.75;20.88;;;;;;;;;;5131116;28;20032;-94
2021/03/31 04:31:37;;;;;;;29.92;19.15;;;;;;;;;;5130589;28;20036;-94
2021/03/31 04:34:08;;;;;;;36.13;20.50;;;;;;;;;;5131068;28;20119;-93
2021/03/31 04:36:35;;;;;;;30.50;20.00;;;;;;;;;;5130619;28;20077;-94
2021/03/31 04:39:03;;;;;;;29.77;19.88;;;;;;;;;;5130526;28;20080;-93
2021/03/31 04:41:30;;;;;;;33.63;20.23;;;;;;;;;;5130257;28;20048;-93
2021/03/31 04:43:58;;;;;;;34.53;20.92;;;;;;;;;;5114686;28;20047;-93
2021/03/31 04:46:25;;;;;;;33.92;20.30;;;;;;;;;;5130584;28;20480;-94
2021/03/31 04:48:52;;;;;;;35.60;19.75;;;;;;;;;;5129960;28;20028;-93
2021/03/31 04:51:20;;;;;;;32.03;19.83;;;;;;;;;;5113829;28;20068;-93
2021/03/31 04:53:47;;;;;;;36.05;20.98;;;;;;;;;;5096492;28;20051;-93
2021/03/31 04:56:14;;;;;;;31.73;19.23;;;;;;;;;;5130106;28;20032;-93
2021/03/31 04:58:41;;;;;;;32.83;20.33;;;;;;;;;;5112855;28;20040;-94
2021/03/31 05:01:09;;;;;;;31.80;19.92;;;;;;;;;;5129956;28;20361;-95
2021/03/31 05:03:36;;;;;;;32.20;19.77;;;;;;;;;;5129743;28;20070;-94
2021/03/31 05:06:04;;;;;;;32.25;19.40;;;;;;;;;;5130343;28;20040;-95
2021/03/31 05:08:31;;;;;;;33.53;19.67;;;;;;;;;;5129913;28;20046;-95
2021/03/31 05:10:59;;;;;;;35.38;20.08;;;;;;;;;;5095862;28;20048;-94
2021/03/31 05:13:26;;;;;;;32.85;20.70;;;;;;;;;;5129938;28;20040;-94
2021/03/31 05:15:53;;;;;;;33.25;20.70;;;;;;;;;;5113099;28;20130;-94
2021/03/31 05:18:20;;;;;;;33.78;21.42;;;;;;;;;;5113355;28;20480;-94
2021/03/31 05:20:47;;;;;;;32.17;20.25;;;;;;;;;;5129413;28;20032;-95
2021/03/31 05:23:15;;;;;;;32.15;20.63;;;;;;;;;;5113162;28;20051;-95
2021/03/31 05:25:42;;;;;;;32.33;20.15;;;;;;;;;;5112858;28;20071;-94
2021/03/31 05:28:09;;;;;;;36.67;21.23;;;;;;;;;;5129882;28;20040;-94
2021/03/31 05:30:36;;;;;;;37.58;21.05;;;;;;;;;;5130331;28;20037;-93
2021/03/31 05:33:04;;;;;;;34.55;21.17;;;;;;;;;;5113172;28;20110;-94
2021/03/31 05:35:31;;;;;;;35.08;20.90;;;;;;;;;;5112996;28;20123;-94
2021/03/31 05:37:58;;;;;;;39.95;21.00;;;;;;;;;;5112375;28;20118;-94
2021/03/31 05:40:26;;;;;;;31.60;20.40;;;;;;;;;;5129570;28;20458;-94
2021/03/31 05:42:57;;;;;;;34.67;20.85;;;;;;;;;;5112286;28;20646;-94
2021/03/31 05:45:25;;;;;;;38.17;20.00;;;;;;;;;;5129389;28;20040;-94
2021/03/31 05:47:52;;;;;;;33.60;19.77;;;;;;;;;;5129212;28;20119;-94
2021/03/31 05:50:19;;;;;;;39.65;20.48;;;;;;;;;;5112717;28;20036;-95
2021/03/31 05:52:47;;;;;;;32.88;20.23;;;;;;;;;;5112501;28;20075;-95
2021/03/31 05:55:15;;;;;;;34.28;21.02;;;;;;;;;;5129731;28;20043;-94
2021/03/31 05:57:43;;;;;;;33.67;21.23;;;;;;;;;;5128875;28;20050;-94
2021/03/31 06:00:15;;;;;;;35.05;21.85;;;;;;;;;;5129646;28;20038;-93
2021/03/31 06:02:43;;;;;;;34.70;21.30;;;;;;;;;;5128871;28;20123;-94
2021/03/31 06:05:11;;;;;;;40.58;21.42;;;;;;;;;;5129119;28;20113;-94
2021/03/31 06:07:45;;;;;;;35.03;21.17;;;;;;;;;;5129253;28;20032;-94
2021/03/31 06:10:20;;;;;;;35.15;21.50;;;;;;;;;;5129155;28;20036;-93
2021/03/31 06:12:52;;;;;;;35.75;21.38;;;;;;;;;;5128592;28;20063;-95
2021/03/31 06:15:30;;;;;;;31.15;20.52;;;;;;;;;;5129144;28;20090;-94
2021/03/31 06:18:11;;;;;;;35.15;21.80;;;;;;;;;;5128771;28;20040;-94
2021/03/31 06:20:58;;;;;;;41.47;22.38;;;;;;;;;;5130047;28;20039;-94
2021/03/31 06:26:23;;;;;;;37.70;21.55;;;;;;;;;;5129864;28;20036;-92
2021/03/31 06:29:23;;;;;;;33.95;21.45;;;;;;;;;;5127843;28;20032;-90
2021/03/31 06:31:50;;;;;;;39.60;21.88;;;;;;;;;;5080337;28;20044;-89
2021/03/31 06:34:18;;;;;;;36.47;21.33;;;;;;;;;;5125377;28;20036;-91
2021/03/31 06:36:48;;;;;;;36.80;21.27;;;;;;;;;;5122161;28;20028;-89
2021/03/31 06:39:16;;;;;;;40.92;22.33;;;;;;;;;;5128706;28;20044;-90
2021/03/31 06:41:51;;;;;;;35.58;20.30;;;;;;;;;;5128392;28;20119;-91
2021/03/31 06:44:30;;;;;;;37.33;20.75;;;;;;;;;;5128334;28;20044;-89
2021/03/31 06:47:05;;;;;;;42.05;21.42;;;;;;;;;;5127894;28;20114;-90
2021/03/31 06:49:33;;;;;;;34.67;21.00;;;;;;;;;;5127991;28;20468;-88
2021/03/31 06:52:07;;;;;;;44.58;21.33;;;;;;;;;;5128282;28;20282;-88
2021/03/31 06:55:04;;;;;;;41.13;21.33;;;;;;;;;;5127250;28;20433;-88
2021/03/31 06:57:35;;;;;;;53.85;22.15;;;;;;;;;;5110583;28;20122;-88
2021/03/31 07:00:10;;;;;;;28.40;17.45;;;;;;;;;;5093521;28;20051;-88
2021/03/31 07:02:38;;;;;;;38.50;19.65;;;;;;;;;;5127620;28;20521;-90
2021/03/31 07:05:06;;;;;;;45.90;21.15;;;;;;;;;;5110395;28;20119;-88
2021/03/31 07:07:34;;;;;;;45.92;19.77;;;;;;;;;;5110735;28;20028;-89
2021/03/31 07:10:04;;;;;;;31.38;18.00;;;;;;;;;;5127214;28;20081;-89
2021/03/31 07:12:36;;;;;;;47.92;19.52;;;;;;;;;;5114143;28;20492;-90
2021/03/31 07:15:04;;;;;;;37.35;17.80;;;;;;;;;;5113548;28;20055;-90
2021/03/31 07:17:31;;;;;;;50.90;19.15;;;;;;;;;;5127505;28;20028;-89
2021/03/31 07:19:58;;;;;;;58.03;21.10;;;;;;;;;;5126838;28;20444;-89
2021/03/31 07:22:26;;;;;;;46.47;18.80;;;;;;;;;;5093963;28;20086;-89
2021/03/31 07:24:55;;;;;;;33.10;16.75;;;;;;;;;;5109987;28;20104;-90
2021/03/31 07:27:26;;;;;;;62.38;21.35;;;;;;;;;;5126913;28;20484;-87
2021/03/31 07:30:10;;;;;;;137.02;31.02;;;;;;;;;;5109644;28;20392;-87
2021/03/31 07:32:40;;;;;;;80.53;24.02;;;;;;;;;;5127054;28;20470;-88
2021/03/31 07:35:09;;;;;;;70.97;22.80;;;;;;;;;;5113760;28;20130;-87
2021/03/31 07:37:36;;;;;;;54.08;18.75;;;;;;;;;;5131131;28;20380;-87
2021/03/31 07:40:05;;;;;;;60.15;20.65;;;;;;;;;;5129958;28;20048;-87
2021/03/31 07:42:32;;;;;;;217.95;46.33;;;;;;;;;;5130990;28;20040;-88
2021/03/31 07:45:00;;;;;;;230.63;45.53;;;;;;;;;;5113529;28;20036;-87
2021/03/31 07:47:28;;;;;;;171.13;39.08;;;;;;;;;;5131813;28;20043;-87
2021/03/31 07:49:56;;;;;;;97.90;31.13;;;;;;;;;;5130202;28;20036;-87
2021/03/31 07:52:43;;;;;;;30.20;16.42;;;;;;;;;;5130784;28;20043;-88
2021/03/31 07:55:36;;;;;;;93.35;30.85;;;;;;;;;;5130300;28;20166;-88
2021/03/31 07:58:13;;;;;;;29.55;16.67;;;;;;;;;;5127157;28;20060;-88
2021/03/31 08:03:14;;;;;;;24.25;15.93;;;;;;;;;;5131375;28;20036;-88
2021/03/31 08:06:01;;;;;;;84.82;29.52;;;;;;;;;;5130832;28;20040;-88
2021/03/31 08:08:29;;;;;;;30.25;16.55;;;;;;;;;;5130775;28;20040;-89
2021/03/31 08:10:56;;;;;;;27.50;16.88;;;;;;;;;;5113468;28;20044;-87
2021/03/31 08:13:34;;;;;;;28.63;17.05;;;;;;;;;;5130719;28;20079;-88
2021/03/31 08:16:21;;;;;;;35.53;18.50;;;;;;;;;;5130288;28;20119;-88
2021/03/31 08:18:49;;;;;;;31.35;17.45;;;;;;;;;;5130687;28;20036;-89
2021/03/31 08:21:20;;;;;;;27.33;16.13;;;;;;;;;;5113317;28;20044;-88
2021/03/31 08:23:48;;;;;;;27.45;15.80;;;;;;;;;;5130430;28;20039;-89
2021/03/31 08:26:35;;;;;;;132.90;31.58;;;;;;;;;;5113927;28;20044;-88
2021/03/31 08:29:04;;;;;;;57.70;21.27;;;;;;;;;;5129979;28;20032;-87
2021/03/31 08:31:36;;;;;;;127.65;30.52;;;;;;;;;;5130661;28;20059;-88
2021/03/31 08:34:03;;;;;;;64.63;23.00;;;;;;;;;;5131294;28;20046;-88
2021/03/31 08:36:30;;;;;;;139.23;31.15;;;;;;;;;;5113522;28;20038;-88
2021/03/31 08:38:59;;;;;;;123.22;33.63;;;;;;;;;;5113282;28;20480;-88
2021/03/31 08:41:28;;;;;;;278.95;50.47;;;;;;;;;;5129880;28;20036;-89
2021/03/31 08:44:14;;;;;;;83.32;25.63;;;;;;;;;;5130137;28;20395;-89
2021/03/31 08:46:41;;;;;;;73.25;24.08;;;;;;;;;;5129850;28;20036;-89
2021/03/31 08:49:28;;;;;;;55.80;21.45;;;;;;;;;;5129791;28;20036;-89
2021/03/31 08:52:00;;;;;;;69.93;21.95;;;;;;;;;;5130481;28;20043;-89
2021/03/31 08:54:46;;;;;;;43.30;18.70;;;;;;;;;;5130446;28;20039;-89
2021/03/31 08:57:23;;;;;;;26.33;16.23;;;;;;;;;;5130075;28;20059;-89
2021/03/31 08:59:52;;;;;;;54.22;20.33;;;;;;;;;;5130366;28;20068;-89
2021/03/31 09:02:41;;;;;;;73.18;20.55;;;;;;;;;;5129969;28;20031;-89
2021/03/31 09:05:14;;;;;;;36.50;17.48;;;;;;;;;;5129963;28;20062;-89
2021/03/31 09:07:41;;;;;;;66.45;23.02;;;;;;;;;;5130104;28;20460;-89
2021/03/31 09:10:12;;;;;;;39.33;17.85;;;;;;;;;;5112842;28;20036;-89
2021/03/31 09:12:40;;;;;;;32.95;17.77;;;;;;;;;;5129688;28;20036;-90
2021/03/31 09:15:08;;;;;;;32.65;16.55;;;;;;;;;;5130401;28;20043;-89
2021/03/31 09:17:35;;;;;;;50.08;19.63;;;;;;;;;;5113260;28;20038;-89
2021/03/31 09:20:10;;;;;;;36.88;17.63;;;;;;;;;;5129811;28;20082;-90
2021/03/31 09:22:37;;;;;;;36.42;17.17;;;;;;;;;;5131238;28;20119;-89
2021/03/31 09:25:09;;;;;;;28.08;16.45;;;;;;;;;;5130283;28;20040;-90
2021/03/31 09:27:36;;;;;;;24.85;15.57;;;;;;;;;;5131765;28;20040;-90
2021/03/31 09:30:11;;;;;;;31.15;17.20;;;;;;;;;;5114416;28;20117;-90
2021/03/31 09:32:43;;;;;;;27.52;16.00;;;;;;;;;;5130905;28;20040;-89
2021/03/31 09:35:12;;;;;;;60.00;26.15;;;;;;;;;;5114150;28;20035;-89
2021/03/31 09:37:40;;;;;;;38.40;19.77;;;;;;;;;;5130587;28;20063;-90
2021/03/31 09:40:08;;;;;;;238.18;62.83;;;;;;;;;;5129148;28;20101;-86
2021/03/31 09:42:36;;;;;;;89.25;36.13;;;;;;;;;;5131019;28;20119;-90
2021/03/31 09:45:07;;;;;;;26.52;17.85;;;;;;;;;;5113519;28;20035;-90
2021/03/31 09:47:37;;;;;;;24.00;16.63;;;;;;;;;;5129733;28;20042;-89
2021/03/31 09:50:08;;;;;;;26.98;17.77;;;;;;;;;;5129603;28;20040;-90
2021/03/31 09:52:36;;;;;;;26.85;16.88;;;;;;;;;;5129392;28;20055;-90
2021/03/31 09:55:09;;;;;;;29.05;18.40;;;;;;;;;;5112805;28;20044;-90
2021/03/31 09:57:37;;;;;;;29.58;18.27;;;;;;;;;;5128773;28;20507;-90
2021/03/31 10:00:06;;;;;;;28.02;16.70;;;;;;;;;;5129688;28;20427;-90
2021/03/31 10:02:34;;;;;;;26.80;16.85;;;;;;;;;;5129071;28;20117;-90
2021/03/31 10:05:03;;;;;;;25.73;17.35;;;;;;;;;;5096183;28;20044;-90
2021/03/31 10:07:30;;;;;;;27.13;17.58;;;;;;;;;;5128762;28;20036;-90
2021/03/31 10:09:58;;;;;;;26.13;16.65;;;;;;;;;;5112399;28;20369;-90
2021/03/31 10:12:27;;;;;;;29.73;17.98;;;;;;;;;;5111726;28;20032;-90
2021/03/31 10:14:57;;;;;;;30.30;18.08;;;;;;;;;;5129285;28;20089;-90
2021/03/31 10:17:26;;;;;;;29.15;18.15;;;;;;;;;;5128460;28;20058;-90
2021/03/31 10:19:55;;;;;;;31.38;18.45;;;;;;;;;;5129026;28;20419;-90
2021/03/31 10:22:29;;;;;;;28.75;18.10;;;;;;;;;;5111858;28;20036;-90
2021/03/31 10:25:00;;;;;;;27.83;18.02;;;;;;;;;;5112010;28;20185;-90
2021/03/31 10:27:46;;;;;;;28.00;18.30;;;;;;;;;;5094772;28;20135;-89
2021/03/31 10:30:22;;;;;;;27.60;18.15;;;;;;;;;;5112037;28;20063;-90
2021/03/31 10:32:50;;;;;;;25.25;16.90;;;;;;;;;;5128642;28;20464;-90
2021/03/31 10:35:17;;;;;;;29.88;18.63;;;;;;;;;;5127967;28;20059;-89
2021/03/31 10:38:04;;;;;;;34.53;19.05;;;;;;;;;;5128424;28;20044;-90
2021/03/31 10:48:41;;;;;;;29.60;17.83;;;;;;;;;;5129661;28;20392;-90
2021/03/31 10:51:18;;;;;;;28.13;18.98;;;;;;;;;;5128578;28;20434;-89
2021/03/31 10:54:09;;;;;;;25.55;17.98;;;;;;;;;;5128653;28;20127;-89
2021/03/31 10:56:36;;;;;;;32.15;17.50;;;;;;;;;;5128988;28;20101;-89
2021/03/31 10:59:04;;;;;;;27.98;17.67;;;;;;;;;;5128990;28;20431;-90
2021/03/31 11:01:32;;;;;;;28.63;19.00;;;;;;;;;;5128039;28;20499;-89
2021/03/31 11:03:59;;;;;;;24.60;16.92;;;;;;;;;;5111855;28;20089;-90
2021/03/31 11:06:28;;;;;;;30.67;18.75;;;;;;;;;;5110420;28;20094;-89
2021/03/31 11:08:55;;;;;;;27.25;18.83;;;;;;;;;;5110722;28;20059;-90
2021/03/31 11:11:23;;;;;;;29.80;18.58;;;;;;;;;;5110295;28;20036;-89
2021/03/31 11:13:50;;;;;;;28.38;17.65;;;;;;;;;;5127484;28;20460;-90
2021/03/31 11:16:21;;;;;;;32.17;18.13;;;;;;;;;;5127085;28;20438;-89
2021/03/31 11:25:34;;;;;;;;;;;;;;;;;;5128347;28;20058;-90
2021/03/31 11:27:33;;;;;;;28.00;16.38;;;;;;;;;;5115412;28;20131;-90
2021/03/31 11:30:03;;;;;;;26.02;16.77;;;;;;;;;;5110959;28;20040;-87
2021/03/31 11:32:30;;;;;;;26.20;17.30;;;;;;;;;;5127125;28;20086;-87
2021/03/31 11:34:57;;;;;;;30.60;18.08;;;;;;;;;;5127349;28;20032;-87
2021/03/31 11:37:45;;;;;;;26.05;15.60;;;;;;;;;;5099359;28;20047;-87
2021/03/31 11:40:12;;;;;;;24.08;15.48;;;;;;;;;;5110333;28;20093;-88
2021/03/31 11:43:00;;;;;;;25.83;15.90;;;;;;;;;;5113821;28;20400;-88
2021/03/31 11:45:28;;;;;;;30.08;17.80;;;;;;;;;;5127037;28;20399;-87
2021/03/31 11:47:55;;;;;;;29.35;18.27;;;;;;;;;;5110434;28;20476;-90
2021/03/31 11:50:42;;;;;;;26.67;17.35;;;;;;;;;;5112810;28;20139;-90
2021/03/31 11:53:30;;;;;;;29.70;18.05;;;;;;;;;;5112877;28;20101;-90
2021/03/31 11:56:17;;;;;;;30.23;20.13;;;;;;;;;;5099712;28;20106;-90
2021/03/31 11:59:04;;;;;;;28.65;20.58;;;;;;;;;;5099408;28;20036;-90
2021/03/31 12:01:51;;;;;;;28.80;19.00;;;;;;;;;;5099228;28;20495;-90
2021/03/31 12:04:19;;;;;;;28.55;19.45;;;;;;;;;;5127085;28;20028;-90
2021/03/31 12:06:46;;;;;;;35.47;20.45;;;;;;;;;;5093373;28;20044;-88
2021/03/31 12:09:33;;;;;;;33.20;20.45;;;;;;;;;;5098846;28;20076;-88
2021/03/31 12:12:21;;;;;;;35.22;21.20;;;;;;;;;;5113421;28;20385;-89
2021/03/31 12:14:48;;;;;;;33.63;21.23;;;;;;;;;;5127068;28;20039;-89
2021/03/31 12:17:17;;;;;;;31.85;19.70;;;;;;;;;;5110278;28;20036;-89
2021/03/31 12:20:09;;;;;;;30.65;19.98;;;;;;;;;;5100561;28;20052;-89
2021/03/31 12:22:36;;;;;;;31.13;19.38;;;;;;;;;;5130283;28;20097;-89
2021/03/31 12:25:24;;;;;;;28.23;18.70;;;;;;;;;;5103422;28;20040;-89
2021/03/31 12:27:55;;;;;;;32.45;19.70;;;;;;;;;;5129982;28;20086;-88
2021/03/31 12:30:23;;;;;;;32.33;19.65;;;;;;;;;;5130715;28;20036;-88
2021/03/31 12:33:10;;;;;;;36.58;20.17;;;;;;;;;;5116853;28;20044;-90
2021/03/31 12:35:38;;;;;;;36.65;19.85;;;;;;;;;;5113803;28;20028;-86
2021/03/31 12:38:25;;;;;;;31.75;19.45;;;;;;;;;;5116874;28;20040;-88
2021/03/31 12:40:52;;;;;;;31.88;20.67;;;;;;;;;;5113154;28;20040;-90
2021/03/31 12:43:20;;;;;;;36.80;20.25;;;;;;;;;;5113747;28;20063;-89
2021/03/31 12:45:48;;;;;;;31.10;19.67;;;;;;;;;;5110975;28;20447;-89
2021/03/31 12:48:15;;;;;;;34.35;19.70;;;;;;;;;;5124241;28;20114;-89
2021/03/31 12:51:07;;;;;;;31.55;19.88;;;;;;;;;;5102676;28;20048;-89
2021/03/31 12:54:02;;;;;;;33.90;19.25;;;;;;;;;;5129856;28;20479;-87
2021/03/31 12:56:26;;;;;;;30.63;19.65;;;;;;;;;;5129383;28;20043;-88
2021/03/31 12:59:13;;;;;;;32.90;18.95;;;;;;;;;;5102726;28;20055;-87
2021/03/31 13:02:00;;;;;;;31.30;18.33;;;;;;;;;;5102416;28;20044;-89
2021/03/31 13:04:47;;;;;;;33.22;17.45;;;;;;;;;;5102905;28;20044;-89
2021/03/31 13:07:15;;;;;;;28.95;17.50;;;;;;;;;;5095946;28;20036;-89
2021/03/31 13:09:42;;;;;;;25.25;17.00;;;;;;;;;;5109083;28;20116;-88
2021/03/31 13:12:18;;;;;;;32.97;18.52;;;;;;;;;;5110572;28;20041;-89
2021/03/31 13:15:34;;;;;;;28.35;17.95;;;;;;;;;;5129324;28;20369;-88
2021/03/31 13:26:03;;;;;;;32.63;20.05;;;;;;;;;;5129608;28;20535;-94
2021/03/31 13:31:20;;;;;;;28.30;18.88;;;;;;;;;;5129551;28;20488;-94
2021/03/31 13:33:51;;;;;;;34.10;20.02;;;;;;;;;;5130318;28;20466;-95
2021/03/31 13:36:33;;;;;;;39.97;23.77;;;;;;;;;;5122367;28;20374;-94
2021/03/31 13:39:24;;;;;;;34.10;20.63;;;;;;;;;;5097989;28;20083;-94
2021/03/31 13:41:51;;;;;;;34.80;20.42;;;;;;;;;;5109730;28;20461;-94
2021/03/31 13:44:18;;;;;;;37.20;19.98;;;;;;;;;;5112997;28;20051;-93
2021/03/31 13:47:09;;;;;;;29.00;17.92;;;;;;;;;;5101606;28;20036;-94
2021/03/31 13:49:47;;;;;;;31.70;18.20;;;;;;;;;;5129698;28;20051;-94
2021/03/31 13:52:23;;;;;;;26.00;17.33;;;;;;;;;;5098192;28;20072;-93
2021/03/31 13:55:11;;;;;;;27.70;17.52;;;;;;;;;;5103089;28;20488;-93
2021/03/31 13:57:44;;;;;;;29.63;17.58;;;;;;;;;;5129424;28;20032;-93
2021/03/31 14:00:12;;;;;;;28.25;16.83;;;;;;;;;;5112577;28;20044;-93
2021/03/31 14:03:00;;;;;;;25.95;16.40;;;;;;;;;;5114984;28;20043;-93
2021/03/31 14:05:27;;;;;;;32.97;17.25;;;;;;;;;;5112768;28;20036;-94
2021/03/31 14:07:54;;;;;;;29.17;18.23;;;;;;;;;;5112240;28;20118;-93
2021/03/31 14:10:22;;;;;;;29.20;18.05;;;;;;;;;;5112744;28;20071;-94
2021/03/31 14:12:52;;;;;;;29.45;17.95;;;;;;;;;;5128969;28;20036;-93
2021/03/31 14:15:20;;;;;;;32.95;19.90;;;;;;;;;;5112675;28;20047;-93
2021/03/31 14:18:07;;;;;;;30.17;19.02;;;;;;;;;;5101477;28;20487;-93
2021/03/31 14:20:54;;;;;;;32.38;20.58;;;;;;;;;;5101101;28;20135;-94
2021/03/31 14:23:22;;;;;;;33.60;20.45;;;;;;;;;;5128639;28;20032;-92
2021/03/31 14:26:09;;;;;;;29.33;19.02;;;;;;;;;;5100013;28;20098;-86
2021/03/31 14:28:37;;;;;;;27.10;18.42;;;;;;;;;;5110555;28;20036;-86
2021/03/31 14:31:04;;;;;;;35.72;20.92;;;;;;;;;;5110512;28;20040;-87
2021/03/31 14:33:31;;;;;;;36.08;19.73;;;;;;;;;;5110844;28;20135;-87
2021/03/31 14:36:18;;;;;;;30.25;20.48;;;;;;;;;;5099650;28;20044;-87
2021/03/31 14:39:07;;;;;;;36.63;21.05;;;;;;;;;;5113188;28;20040;-86
2021/03/31 14:41:34;;;;;;;32.38;20.65;;;;;;;;;;5127148;28;20048;-85
2021/03/31 14:44:02;;;;;;;30.00;20.05;;;;;;;;;;5126043;28;20036;-86
2021/03/31 14:46:49;;;;;;;35.72;19.33;;;;;;;;;;5111170;28;20387;-88
2021/03/31 14:49:17;;;;;;;32.53;20.38;;;;;;;;;;5103504;28;20068;-87
2021/03/31 15:00:21;;;;;;;30.02;19.95;;;;;;;;;;5127619;28;20063;-87
2021/03/31 15:02:48;;;;;;;32.53;20.65;;;;;;;;;;5110251;28;20057;-86
2021/03/31 15:05:35;;;;;;;32.35;21.08;;;;;;;;;;5099532;28;20036;-87
2021/03/31 15:08:22;;;;;;;35.75;21.48;;;;;;;;;;5113200;28;20495;-86
2021/03/31 15:10:50;;;;;;;31.15;20.27;;;;;;;;;;5127131;28;20043;-87
2021/03/31 15:13:18;;;;;;;32.05;20.83;;;;;;;;;;5094342;28;20048;-87
2021/03/31 15:15:45;;;;;;;29.58;19.92;;;;;;;;;;5126906;28;20085;-86
2021/03/31 15:18:33;;;;;;;33.60;20.38;;;;;;;;;;5110075;28;20047;-87
2021/03/31 15:21:32;;;;;;;32.13;20.35;;;;;;;;;;5106712;28;20059;-90